Time;durP1;ratioP1;P1;durP2;ratioP2;P2;SDS_P1;SDS_P2;PMS_P1;PMS_P2;Temp;Humidity;BMP_temperature;BMP_pressure;BME280_temperature;BME280_humidity;BME280_pressure;Samples;Min_cycle;Max_cycle;Signal;HPM_P1;HPM_P2
2023/12/18 00:01:09;;;;;;;14.98;9.93;;;;;;;3.78;100.00;103274.38;5033979;28;20495;-57
2023/12/18 00:03:34;;;;;;;16.00;10.00;;;;;;;3.80;100.00;103277.00;5034155;28;20489;-56
2023/12/18 00:05:59;;;;;;;15.98;10.50;;;;;;;3.81;100.00;103270.84;5035276;28;20025;-56
2023/12/18 00:08:25;;;;;;;18.55;10.65;;;;;;;3.81;100.00;103269.06;5032829;28;20033;-57
2023/12/18 00:10:50;;;;;;;20.58;10.93;;;;;;;3.84;100.00;103274.31;5035557;28;20395;-56
2023/12/18 00:13:15;;;;;;;23.30;11.55;;;;;;;3.87;100.00;103276.91;5034073;28;20045;-56
2023/12/18 00:15:41;;;;;;;21.45;11.20;;;;;;;3.91;100.00;103284.78;5032142;28;20079;-58
2023/12/18 00:18:06;;;;;;;16.60;11.20;;;;;;;3.93;100.00;103286.53;5034545;28;20029;-56
2023/12/18 00:20:31;;;;;;;16.23;11.15;;;;;;;3.94;100.00;103272.47;5033315;28;20356;-56
2023/12/18 00:22:58;;;;;;;17.15;11.65;;;;;;;3.98;100.00;103260.16;5031585;28;20032;-57
2023/12/18 00:25:23;;;;;;;18.15;11.18;;;;;;;4.01;100.00;103265.41;5034417;28;21086;-57
2023/12/18 00:27:48;;;;;;;20.13;12.32;;;;;;;4.04;100.00;103268.84;5032506;28;20014;-55
2023/12/18 00:30:13;;;;;;;18.08;12.15;;;;;;;4.06;100.00;103264.47;5033075;28;20026;-55
2023/12/18 00:32:39;;;;;;;18.38;11.98;;;;;;;4.08;100.00;103257.44;5034223;28;20033;-58
2023/12/18 00:35:04;;;;;;;18.73;11.65;;;;;;;4.12;100.00;103266.16;5033610;28;20032;-57
2023/12/18 00:37:29;;;;;;;15.68;11.63;;;;;;;4.13;100.00;103260.03;5028466;28;20386;-57
2023/12/18 00:39:55;;;;;;;19.95;12.40;;;;;;;4.15;100.00;103263.50;5034562;28;20021;-58
2023/12/18 00:42:20;;;;;;;18.05;11.88;;;;;;;4.16;100.00;103257.34;5034076;28;20433;-57
2023/12/18 00:44:45;;;;;;;17.58;12.65;;;;;;;4.18;100.00;103252.06;5034739;28;20021;-56
2023/12/18 00:47:11;;;;;;;18.30;12.63;;;;;;;4.18;100.00;103249.44;5032586;28;20025;-55
2023/12/18 00:49:36;;;;;;;20.27;12.02;;;;;;;4.20;100.00;103248.53;5031579;28;20348;-53
2023/12/18 00:52:01;;;;;;;22.77;13.60;;;;;;;4.24;100.00;103246.75;5034263;28;20021;-56
2023/12/18 00:54:26;;;;;;;21.20;13.00;;;;;;;4.23;100.00;103243.25;5034012;28;20467;-56
2023/12/18 00:56:52;;;;;;;24.27;13.38;;;;;;;4.27;100.00;103257.22;5029155;28;20020;-56
2023/12/18 00:59:17;;;;;;;19.13;13.05;;;;;;;4.28;100.00;103261.63;5033220;28;20364;-56
2023/12/18 01:01:43;;;;;;;20.73;13.32;;;;;;;4.30;100.00;103259.84;5033059;28;20075;-58
2023/12/18 01:04:08;;;;;;;21.38;13.32;;;;;;;4.32;100.00;103258.06;5029739;28;20087;-57
2023/12/18 01:06:33;;;;;;;21.70;12.73;;;;;;;4.34;100.00;103245.75;5035679;28;20025;-58
2023/12/18 01:08:59;;;;;;;20.90;13.35;;;;;;;4.37;100.00;103245.72;5033026;28;20487;-57
2023/12/18 01:11:24;;;;;;;20.88;13.07;;;;;;;4.37;100.00;103242.22;5033363;28;20178;-57
2023/12/18 01:13:49;;;;;;;20.27;13.55;;;;;;;4.38;100.00;103236.94;5031929;28;20024;-57
2023/12/18 01:16:14;;;;;;;24.55;13.85;;;;;;;4.41;100.00;103238.66;5030331;28;20049;-57
2023/12/18 01:18:40;;;;;;;26.20;14.85;;;;;;;4.42;100.00;103238.63;5032047;28;20076;-58
2023/12/18 01:21:05;;;;;;;21.10;14.20;;;;;;;4.44;100.00;103230.72;5032312;28;20045;-57
2023/12/18 01:23:30;;;;;;;24.00;14.63;;;;;;;4.45;100.00;103221.94;5033452;28;20032;-57
2023/12/18 01:25:56;;;;;;;21.02;14.80;;;;;;;4.48;100.00;103224.53;5031508;28;20030;-58
2023/12/18 01:28:21;;;;;;;23.40;15.05;;;;;;;4.50;100.00;103219.25;5033699;28;20034;-58
2023/12/18 01:30:46;;;;;;;21.67;15.80;;;;;;;4.55;100.00;103226.19;5033645;28;20485;-57
2023/12/18 01:33:12;;;;;;;21.55;15.57;;;;;;;4.55;100.00;103228.81;5036285;28;20079;-56
2023/12/18 01:35:37;;;;;;;23.42;14.45;;;;;;;4.56;100.00;103225.31;5032878;28;20025;-55
2023/12/18 01:38:02;;;;;;;20.85;14.98;;;;;;;4.59;100.00;103232.28;5030789;28;20021;-57
2023/12/18 01:40:27;;;;;;;23.65;15.20;;;;;;;4.61;100.00;103238.38;5029120;28;20029;-58
2023/12/18 01:42:53;;;;;;;27.67;15.63;;;;;;;4.62;100.00;103232.25;5035846;28;20032;-57
2023/12/18 01:45:18;;;;;;;21.40;15.95;;;;;;;4.64;100.00;103241.00;5032471;28;20040;-55
2023/12/18 01:47:44;;;;;;;23.13;15.35;;;;;;;4.63;100.00;103232.22;5033101;28;20106;-57
2023/12/18 01:50:09;;;;;;;23.35;15.60;;;;;;;4.68;100.00;103241.81;5029098;28;20045;-57
2023/12/18 01:52:37;;;;;;;27.08;16.50;;;;;;;4.69;100.00;103240.94;5035090;28;20017;-56
2023/12/18 01:55:03;;;;;;;26.42;16.05;;;;;;;4.69;100.00;103233.91;5032656;28;20021;-54
2023/12/18 01:57:29;;;;;;;23.88;15.18;;;;;;;4.70;100.00;103243.56;5033112;28;20030;-57
2023/12/18 01:59:55;;;;;;;26.02;15.02;;;;;;;4.72;100.00;103241.75;5032041;28;20018;-57
2023/12/18 02:02:20;;;;;;;23.00;15.18;;;;;;;4.72;100.00;103238.25;5036568;28;20036;-57
2023/12/18 02:04:46;;;;;;;24.02;15.68;;;;;;;4.72;100.00;103230.38;5036222;28;20025;-57
2023/12/18 02:07:12;;;;;;;23.27;15.98;;;;;;;4.74;100.00;103231.22;5032844;28;20393;-57
2023/12/18 02:09:37;;;;;;;23.00;15.50;;;;;;;4.72;100.00;103225.97;5031853;28;20033;-58
2023/12/18 02:12:03;;;;;;;22.58;14.45;;;;;;;4.73;100.00;103221.56;5035796;28;20076;-58
2023/12/18 02:14:29;;;;;;;23.33;15.38;;;;;;;4.76;100.00;103227.69;5034400;28;20036;-57
2023/12/18 02:16:55;;;;;;;24.55;14.73;;;;;;;4.74;100.00;103226.81;5033811;28;20092;-57
2023/12/18 02:19:25;;;;;;;20.70;15.18;;;;;;;4.75;100.00;103223.28;5036271;28;20471;-56
2023/12/18 02:21:50;;;;;;;29.20;16.17;;;;;;;4.76;100.00;103230.31;5033397;28;20087;-57
2023/12/18 02:24:16;;;;;;;27.30;15.10;;;;;;;4.77;100.00;103224.13;5014222;28;20029;-54
2023/12/18 02:26:42;;;;;;;28.05;15.63;;;;;;;4.78;100.00;103225.00;5030496;28;20121;-58
2023/12/18 02:29:07;;;;;;;25.10;15.63;;;;;;;4.80;100.00;103215.34;5028664;28;20030;-57
2023/12/18 02:31:35;;;;;;;25.25;15.30;;;;;;;4.80;100.00;103210.94;5032159;28;20024;-56
2023/12/18 02:34:00;;;;;;;21.25;14.90;;;;;;;4.80;100.00;103216.19;5029364;28;20117;-57
2023/12/18 02:36:25;;;;;;;23.88;15.60;;;;;;;4.83;100.00;103207.41;5031882;28;20057;-54
2023/12/18 02:38:51;;;;;;;23.95;15.38;;;;;;;4.85;100.00;103207.38;5032481;28;20029;-56
2023/12/18 02:41:16;;;;;;;21.50;14.45;;;;;;;4.91;100.00;103209.91;5031860;28;20390;-56
2023/12/18 02:43:41;;;;;;;24.77;14.85;;;;;;;4.93;100.00;103197.56;5032284;28;20029;-56
2023/12/18 02:46:06;;;;;;;23.75;14.60;;;;;;;4.97;100.00;103207.19;5032115;28;20032;-56
2023/12/18 02:48:32;;;;;;;22.95;14.80;;;;;;;5.00;100.00;103204.50;5029279;28;20036;-55
2023/12/18 02:50:57;;;;;;;25.15;14.77;;;;;;;5.03;100.00;103198.31;5033676;28;20056;-56
2023/12/18 02:53:22;;;;;;;20.10;14.43;;;;;;;5.05;100.00;103196.56;5033159;28;20112;-52
2023/12/18 02:55:48;;;;;;;24.98;15.05;;;;;;;5.06;100.00;103198.25;5035117;28;20025;-56
2023/12/18 02:58:14;;;;;;;22.55;14.10;;;;;;;5.09;100.00;103198.22;5034138;28;20112;-54
2023/12/18 03:00:39;;;;;;;22.90;15.20;;;;;;;5.09;100.00;103195.59;5033872;28;20021;-54
2023/12/18 03:03:04;;;;;;;24.30;15.02;;;;;;;5.10;100.00;103185.03;5033793;28;20033;-54
2023/12/18 03:05:29;;;;;;;21.33;15.32;;;;;;;5.10;100.00;103184.16;5034126;28;20459;-53
2023/12/18 03:07:55;;;;;;;21.42;14.35;;;;;;;5.12;100.00;103179.75;5034718;28;20488;-56
2023/12/18 03:10:20;;;;;;;25.90;15.45;;;;;;;5.09;100.00;103178.00;5032488;28;20037;-56
2023/12/18 03:12:45;;;;;;;22.27;15.60;;;;;;;5.08;100.00;103178.03;5034256;28;20045;-54
2023/12/18 03:15:12;;;;;;;23.98;14.77;;;;;;;5.05;100.00;103172.84;5037532;28;20137;-55
2023/12/18 03:17:37;;;;;;;25.38;15.32;;;;;;;5.02;100.00;103175.53;5037466;28;20451;-55
2023/12/18 03:20:02;;;;;;;22.67;15.38;;;;;;;5.00;100.00;103173.75;5034314;28;20079;-57
2023/12/18 03:22:28;;;;;;;23.92;15.35;;;;;;;4.99;100.00;103179.06;5033730;28;20512;-57
2023/12/18 03:24:53;;;;;;;23.98;15.18;;;;;;;4.98;100.00;103177.34;5034363;28;20108;-57
2023/12/18 03:27:18;;;;;;;22.02;16.13;;;;;;;4.97;100.00;103175.59;5040394;28;20460;-56
2023/12/18 03:29:43;;;;;;;24.92;16.73;;;;;;;4.97;100.00;103181.72;5037624;28;20474;-55
2023/12/18 03:32:09;;;;;;;27.88;16.63;;;;;;;4.96;100.00;103174.72;5036334;28;20067;-56
2023/12/18 03:34:34;;;;;;;24.38;16.55;;;;;;;4.94;100.00;103178.25;5036703;28;20409;-57
2023/12/18 03:36:59;;;;;;;23.70;16.98;;;;;;;4.93;100.00;103182.66;5034318;28;20026;-55
2023/12/18 03:39:25;;;;;;;25.25;16.75;;;;;;;4.91;100.00;103179.19;5035341;28;20031;-56
2023/12/18 03:41:50;;;;;;;23.27;16.00;;;;;;;4.91;100.00;103181.81;5016511;28;20010;-57
2023/12/18 03:44:15;;;;;;;23.45;16.13;;;;;;;4.92;100.00;103177.41;5032662;28;20091;-57
2023/12/18 03:46:40;;;;;;;22.55;16.27;;;;;;;4.90;100.00;103184.47;5031337;28;20032;-55
2023/12/18 03:49:06;;;;;;;26.73;16.52;;;;;;;4.91;100.00;103179.19;5031832;28;20041;-56
2023/12/18 03:51:32;;;;;;;26.73;17.75;;;;;;;4.91;100.00;103178.31;5033984;28;20379;-56
2023/12/18 03:53:58;;;;;;;24.48;16.27;;;;;;;4.91;100.00;103184.47;5035010;28;20466;-57
2023/12/18 03:56:23;;;;;;;23.65;16.45;;;;;;;4.92;100.00;103187.94;5033576;28;20053;-56
2023/12/18 03:58:48;;;;;;;27.00;17.13;;;;;;;4.93;100.00;103181.78;5033944;28;20025;-56
2023/12/18 04:01:13;;;;;;;25.85;16.98;;;;;;;4.91;100.00;103184.47;5030187;28;20033;-56
2023/12/18 04:03:39;;;;;;;23.40;16.40;;;;;;;4.92;100.00;103185.31;5033698;28;20071;-54
2023/12/18 04:06:08;;;;;;;26.92;17.20;;;;;;;4.92;100.00;103194.09;5033850;28;20021;-53
2023/12/18 04:08:33;;;;;;;29.52;17.75;;;;;;;4.94;100.00;103183.53;5035306;28;20037;-56
2023/12/18 04:10:58;;;;;;;27.23;16.73;;;;;;;4.94;100.00;103178.25;5034423;28;20013;-55
2023/12/18 04:13:24;;;;;;;29.13;17.42;;;;;;;4.94;100.00;103180.91;5029730;28;20045;-56
2023/12/18 04:15:49;;;;;;;28.02;16.60;;;;;;;4.95;100.00;103177.38;5033526;28;20182;-53
2023/12/18 04:18:14;;;;;;;27.92;16.90;;;;;;;4.93;100.00;103168.59;5034897;28;20026;-53
2023/12/18 04:20:40;;;;;;;28.23;17.10;;;;;;;4.93;100.00;103171.25;5015110;28;20024;-53
2023/12/18 04:23:05;;;;;;;29.40;17.55;;;;;;;4.94;100.00;103170.34;5034156;28;20108;-54
2023/12/18 04:25:30;;;;;;;29.25;17.70;;;;;;;4.93;100.00;103168.59;5032745;28;20065;-56
2023/12/18 04:27:56;;;;;;;26.70;17.15;;;;;;;4.93;100.00;103166.88;5036914;28;20026;-56
2023/12/18 04:30:21;;;;;;;28.35;17.42;;;;;;;4.93;100.00;103156.34;5033761;28;20024;-56
2023/12/18 04:32:46;;;;;;;31.75;17.73;;;;;;;4.94;100.00;103159.81;5030930;28;20053;-57
2023/12/18 04:35:11;;;;;;;25.90;16.85;;;;;;;4.95;100.00;103172.97;5034668;28;20030;-57
2023/12/18 04:37:37;;;;;;;29.50;17.55;;;;;;;4.96;100.00;103166.81;5031736;28;20014;-57
2023/12/18 04:40:05;;;;;;;28.88;17.42;;;;;;;4.96;100.00;103153.66;5036200;28;20036;-57
2023/12/18 04:42:30;;;;;;;27.37;17.80;;;;;;;4.98;100.00;103158.91;5032520;28;20025;-57
2023/12/18 04:44:57;;;;;;;33.15;17.58;;;;;;;4.95;100.00;103164.22;5035183;28;20257;-56
2023/12/18 04:47:22;;;;;;;26.85;16.98;;;;;;;4.97;100.00;103173.81;5034420;28;20457;-57
2023/12/18 04:49:48;;;;;;;30.70;18.08;;;;;;;4.98;100.00;103167.66;5032674;28;20045;-57
2023/12/18 04:52:13;;;;;;;28.40;16.92;;;;;;;4.97;100.00;103163.28;5033035;28;20029;-58
2023/12/18 04:54:38;;;;;;;28.23;17.17;;;;;;;4.97;100.00;103163.28;5030796;28;20471;-57
2023/12/18 04:57:04;;;;;;;28.67;17.80;;;;;;;4.99;100.00;103160.63;5033124;28;20043;-56
2023/12/18 04:59:30;;;;;;;34.70;18.15;;;;;;;4.99;100.00;103150.09;5032213;28;20072;-57
2023/12/18 05:01:55;;;;;;;26.15;17.98;;;;;;;5.00;100.00;103151.84;5033641;28;20084;-57
2023/12/18 05:04:20;;;;;;;28.42;17.95;;;;;;;5.02;100.00;103146.53;5033530;28;20040;-55
2023/12/18 05:06:45;;;;;;;27.48;17.65;;;;;;;5.02;100.00;103152.69;5031067;28;20390;-56
2023/12/18 05:09:11;;;;;;;25.85;17.10;;;;;;;5.03;100.00;103153.53;5030552;28;20033;-57
2023/12/18 05:11:36;;;;;;;30.70;17.95;;;;;;;5.03;100.00;103151.78;5036374;28;20569;-57
2023/12/18 05:14:01;;;;;;;28.63;17.13;;;;;;;5.04;100.00;103157.91;5015629;28;20445;-57
2023/12/18 05:16:27;;;;;;;29.08;17.73;;;;;;;5.03;100.00;103150.91;5033613;28;20100;-58
2023/12/18 05:18:53;;;;;;;27.92;17.88;;;;;;;5.05;100.00;103150.00;5034071;28;20018;-56
2023/12/18 05:21:19;;;;;;;27.13;17.40;;;;;;;5.04;100.00;103145.63;5032670;28;20029;-57
2023/12/18 05:23:47;;;;;;;29.85;17.42;;;;;;;5.03;100.00;103138.63;5034440;28;20021;-57
2023/12/18 05:26:12;;;;;;;23.95;17.35;;;;;;;5.02;100.00;103139.50;5034281;28;20025;-57
2023/12/18 05:28:38;;;;;;;26.17;17.58;;;;;;;5.03;100.00;103138.63;5031943;28;20091;-57
2023/12/18 05:31:03;;;;;;;26.20;18.33;;;;;;;5.02;100.00;103143.91;5033041;28;20029;-57
2023/12/18 05:33:28;;;;;;;31.85;18.80;;;;;;;5.03;100.00;103143.00;5030557;28;20093;-57
2023/12/18 05:35:53;;;;;;;30.92;19.05;;;;;;;5.04;100.00;103140.34;5033186;28;20072;-57
2023/12/18 05:38:19;;;;;;;28.30;18.17;;;;;;;5.04;100.00;103157.91;5030236;28;20040;-57
2023/12/18 05:40:44;;;;;;;29.55;19.05;;;;;;;5.04;100.00;103155.28;5035332;28;20491;-57
2023/12/18 05:43:09;;;;;;;29.77;17.00;;;;;;;5.04;100.00;103156.16;5030599;28;20586;-55
2023/12/18 05:45:35;;;;;;;31.20;18.52;;;;;;;5.06;100.00;103167.53;5029407;28;20026;-57
2023/12/18 05:48:00;;;;;;;30.10;18.13;;;;;;;5.07;100.00;103163.16;5030934;28;20021;-56
2023/12/18 05:50:26;;;;;;;34.67;18.73;;;;;;;5.07;100.00;103173.69;5015110;28;20124;-57
2023/12/18 05:52:51;;;;;;;32.50;18.33;;;;;;;5.07;100.00;103173.69;5031755;28;20102;-57
2023/12/18 05:55:17;;;;;;;26.45;17.90;;;;;;;5.07;100.00;103173.69;5032250;28;20072;-54
2023/12/18 05:57:42;;;;;;;29.25;18.02;;;;;;;5.09;100.00;103163.97;5030839;28;20040;-56
2023/12/18 06:00:09;;;;;;;29.23;17.92;;;;;;;5.09;100.00;103158.72;5030087;28;20033;-56
2023/12/18 06:02:34;;;;;;;30.10;17.42;;;;;;;5.11;100.00;103160.44;5031969;28;20064;-55
2023/12/18 06:05:00;;;;;;;30.23;18.25;;;;;;;5.14;100.00;103152.47;5030202;28;20507;-55
2023/12/18 06:07:25;;;;;;;31.17;18.10;;;;;;;5.15;100.00;103145.44;5029976;28;20071;-55
2023/12/18 06:09:51;;;;;;;27.30;17.23;;;;;;;5.16;100.00;103148.06;5031851;28;20079;-56
2023/12/18 06:12:16;;;;;;;29.88;18.02;;;;;;;5.17;100.00;103152.41;5029445;28;20072;-56
2023/12/18 06:14:41;;;;;;;38.45;18.05;;;;;;;5.18;100.00;103153.31;5031667;28;20022;-55
2023/12/18 06:17:06;;;;;;;32.10;17.10;;;;;;;5.20;100.00;103159.41;5015878;28;20045;-55
2023/12/18 06:19:32;;;;;;;29.38;16.90;;;;;;;5.24;100.00;103161.09;5030419;28;20024;-58
2023/12/18 06:21:57;;;;;;;26.95;17.20;;;;;;;5.22;100.00;103162.88;5027210;28;20025;-56
2023/12/18 06:24:22;;;;;;;28.63;16.55;;;;;;;5.26;100.00;103161.94;5033661;28;20022;-55
2023/12/18 06:26:48;;;;;;;27.58;17.83;;;;;;;5.30;100.00;103155.72;5017570;28;20029;-57
2023/12/18 06:29:13;;;;;;;31.92;17.33;;;;;;;5.33;100.00;103155.66;5033652;28;20536;-55
2023/12/18 06:31:38;;;;;;;28.58;16.38;;;;;;;5.34;100.00;103154.75;5035233;28;20485;-55
2023/12/18 06:34:03;;;;;;;27.67;17.80;;;;;;;5.38;100.00;103158.22;5036771;28;20356;-56
2023/12/18 06:36:29;;;;;;;26.80;16.92;;;;;;;5.39;100.00;103149.41;5034533;28;20029;-56
2023/12/18 06:38:54;;;;;;;28.27;17.15;;;;;;;5.41;100.00;103147.59;5036500;28;20025;-57
2023/12/18 06:41:20;;;;;;;27.58;17.20;;;;;;;5.41;100.00;103152.03;5033667;28;20029;-56
2023/12/18 06:43:45;;;;;;;33.08;17.85;;;;;;;5.42;100.00;103146.72;5039351;28;20025;-54
2023/12/18 06:46:11;;;;;;;25.70;16.35;;;;;;;5.42;100.00;103149.34;5039019;28;20482;-55
2023/12/18 06:48:36;;;;;;;27.05;17.13;;;;;;;5.42;100.00;103143.22;5041866;28;20037;-56
2023/12/18 06:51:01;;;;;;;26.98;17.88;;;;;;;5.43;100.00;103153.75;5037960;28;20100;-55
2023/12/18 06:53:26;;;;;;;31.75;17.05;;;;;;;5.38;100.00;103151.19;5035293;28;20030;-54
2023/12/18 06:55:52;;;;;;;26.83;17.23;;;;;;;5.36;100.00;103149.47;5031524;28;20033;-54
2023/12/18 06:58:17;;;;;;;25.20;16.92;;;;;;;5.34;100.00;103146.84;5032281;28;20113;-54
2023/12/18 07:00:43;;;;;;;29.98;18.48;;;;;;;5.33;100.00;103147.75;5032448;28;20040;-57
2023/12/18 07:03:09;;;;;;;27.85;16.90;;;;;;;5.32;100.00;103148.66;5035415;28;20089;-55
2023/12/18 07:05:34;;;;;;;26.05;17.55;;;;;;;5.35;100.00;103148.59;5040505;28;20057;-54
2023/12/18 07:07:59;;;;;;;27.30;18.45;;;;;;;5.34;100.00;103151.25;5036185;28;20025;-56
2023/12/18 07:10:25;;;;;;;27.40;17.55;;;;;;;5.34;100.00;103151.25;5036684;28;20041;-54
2023/12/18 07:12:50;;;;;;;31.10;18.17;;;;;;;5.35;100.00;103143.31;5043301;28;20462;-53
2023/12/18 07:15:15;;;;;;;29.90;18.65;;;;;;;5.35;100.00;103151.22;5040807;28;20036;-56
2023/12/18 07:17:41;;;;;;;28.48;17.85;;;;;;;5.34;100.00;103162.66;5039538;28;20486;-56
2023/12/18 07:20:08;;;;;;;32.28;18.15;;;;;;;5.33;100.00;103155.66;5038949;28;20021;-55
2023/12/18 07:22:34;;;;;;;31.45;18.45;;;;;;;5.32;100.00;103155.69;5035720;28;20033;-58
2023/12/18 07:24:59;;;;;;;33.00;18.95;;;;;;;5.32;100.00;103161.81;5036847;28;20585;-56
2023/12/18 07:27:24;;;;;;;32.22;18.23;;;;;;;5.32;100.00;103168.88;5034599;28;20029;-58
2023/12/18 07:29:50;;;;;;;31.23;18.95;;;;;;;5.29;100.00;103164.50;5036963;28;20068;-58
2023/12/18 07:32:15;;;;;;;28.20;18.58;;;;;;;5.24;100.00;103169.00;5035489;28;20120;-58
2023/12/18 07:34:41;;;;;;;31.58;18.98;;;;;;;5.21;100.00;103166.41;5031193;28;20033;-58
2023/12/18 07:37:06;;;;;;;32.47;19.38;;;;;;;5.18;100.00;103158.56;5035035;28;20387;-57
2023/12/18 07:39:32;;;;;;;34.03;19.42;;;;;;;5.15;100.00;103166.53;5033228;28;20080;-57
2023/12/18 07:41:57;;;;;;;32.70;19.77;;;;;;;5.14;100.00;103168.28;5035858;28;20021;-58
2023/12/18 07:44:22;;;;;;;36.17;19.23;;;;;;;5.14;100.00;103170.03;5036689;28;20035;-58
2023/12/18 07:46:50;;;;;;;31.00;18.10;;;;;;;5.11;100.00;103167.44;5036157;28;20538;-58
2023/12/18 07:49:16;;;;;;;32.95;18.58;;;;;;;5.09;100.00;103161.34;5038494;28;20048;-57
2023/12/18 07:51:41;;;;;;;34.78;19.17;;;;;;;5.09;100.00;103166.63;5033977;28;20025;-57
2023/12/18 07:54:06;;;;;;;31.42;19.58;;;;;;;5.07;100.00;103158.72;5036263;28;20065;-55
2023/12/18 07:56:32;;;;;;;33.65;19.38;;;;;;;5.08;100.00;103159.59;5034563;28;20116;-57
2023/12/18 07:58:57;;;;;;;32.13;20.10;;;;;;;5.05;100.00;103155.25;5035194;28;20034;-57
2023/12/18 08:01:22;;;;;;;36.10;21.10;;;;;;;5.05;100.00;103154.41;5036390;28;20052;-57
2023/12/18 08:03:47;;;;;;;34.05;20.25;;;;;;;5.04;100.00;103158.78;5034493;28;20037;-57
2023/12/18 08:06:13;;;;;;;29.95;19.83;;;;;;;5.03;100.00;103156.16;5034346;28;20033;-54
2023/12/18 08:08:38;;;;;;;32.08;19.92;;;;;;;5.03;100.00;103145.63;5034140;28;20450;-57
2023/12/18 08:11:03;;;;;;;30.42;19.45;;;;;;;5.02;100.00;103143.91;5036200;28;20033;-57
2023/12/18 08:13:29;;;;;;;37.58;20.20;;;;;;;5.01;100.00;103140.38;5035988;28;20045;-56
2023/12/18 08:15:54;;;;;;;30.13;20.05;;;;;;;5.02;100.00;103142.13;5036092;28;20036;-58
2023/12/18 08:18:19;;;;;;;37.30;19.85;;;;;;;5.04;100.00;103139.47;5028876;28;20067;-57
2023/12/18 08:20:45;;;;;;;33.95;19.42;;;;;;;5.04;100.00;103131.59;5032268;28;20013;-57
2023/12/18 08:23:10;;;;;;;32.70;19.55;;;;;;;5.07;100.00;103139.44;5031800;28;20380;-57
2023/12/18 08:25:35;;;;;;;31.40;19.70;;;;;;;5.07;100.00;103142.94;5033618;28;20021;-57
2023/12/18 08:28:00;;;;;;;38.40;21.05;;;;;;;5.09;100.00;103143.75;5015407;28;20470;-56
2023/12/18 08:30:26;;;;;;;33.60;20.17;;;;;;;5.11;100.00;103133.22;5032648;28;20116;-57
2023/12/18 08:32:51;;;;;;;35.47;21.00;;;;;;;5.12;100.00;103134.97;5038848;28;20024;-57
2023/12/18 08:35:16;;;;;;;33.45;21.52;;;;;;;5.13;100.00;103136.69;5037732;28;20068;-57
2023/12/18 08:37:42;;;;;;;33.22;20.50;;;;;;;5.13;100.00;103134.94;5034324;28;20375;-58
2023/12/18 08:40:08;;;;;;;35.30;19.75;;;;;;;5.13;100.00;103140.22;5036849;28;20442;-56
2023/12/18 08:42:33;;;;;;;37.15;19.77;;;;;;;5.15;100.00;103133.13;5041153;28;20029;-57
2023/12/18 08:44:58;;;;;;;31.65;20.02;;;;;;;5.17;100.00;103131.34;5034966;28;20021;-55
2023/12/18 08:47:23;;;;;;;32.58;20.00;;;;;;;5.19;100.00;103128.69;5039710;28;20108;-57
2023/12/18 08:49:49;;;;;;;32.08;19.48;;;;;;;5.20;100.00;103133.06;5036946;28;20108;-56
2023/12/18 08:52:14;;;;;;;32.90;19.70;;;;;;;5.20;100.00;103133.06;5039815;28;20052;-58
2023/12/18 08:54:39;;;;;;;32.58;20.05;;;;;;;5.22;100.00;103127.78;5034613;28;20537;-58
2023/12/18 08:57:05;;;;;;;38.13;20.30;;;;;;;5.20;100.00;103127.78;5040299;28;20029;-58
2023/12/18 08:59:30;;;;;;;34.17;20.38;;;;;;;5.23;100.00;103126.84;5037528;28;20048;-58
2023/12/18 09:01:55;;;;;;;33.03;20.20;;;;;;;5.25;100.00;103127.72;5039422;28;20025;-58
2023/12/18 09:04:20;;;;;;;35.20;20.92;;;;;;;5.26;100.00;103125.06;5034743;28;20037;-58
2023/12/18 09:06:46;;;;;;;43.05;20.10;;;;;;;5.26;100.00;103125.06;5039737;28;20061;-58
2023/12/18 09:09:11;;;;;;;28.05;19.33;;;;;;;5.29;100.00;103118.84;5037441;28;20040;-57
2023/12/18 09:11:37;;;;;;;28.05;18.40;;;;;;;5.30;100.00;103115.34;5016737;28;20033;-59
2023/12/18 09:14:03;;;;;;;28.85;19.38;;;;;;;5.32;100.00;103119.66;5034212;28;20136;-58
2023/12/18 09:16:29;;;;;;;28.92;19.00;;;;;;;5.33;100.00;103120.56;5039841;28;20036;-58
2023/12/18 09:18:54;;;;;;;31.95;20.00;;;;;;;5.34;100.00;103114.38;5035052;28;20033;-58
2023/12/18 09:21:19;;;;;;;36.92;19.83;;;;;;;5.38;100.00;103110.78;5040837;28;20099;-58
2023/12/18 09:23:45;;;;;;;32.20;20.25;;;;;;;5.38;100.00;103111.66;5034588;28;20076;-57
2023/12/18 09:26:15;;;;;;;33.85;19.30;;;;;;;5.42;100.00;103116.88;5034796;28;20065;-58
2023/12/18 09:28:40;;;;;;;35.83;20.42;;;;;;;5.42;100.00;103117.72;5024876;28;20038;-58
2023/12/18 09:31:06;;;;;;;35.45;19.73;;;;;;;5.45;100.00;103122.09;5026954;28;20119;-57
2023/12/18 09:33:33;;;;;;;29.90;19.58;;;;;;;5.46;100.00;103132.63;5028219;28;20026;-57
2023/12/18 09:35:59;;;;;;;30.48;19.13;;;;;;;5.49;100.00;103129.03;5030317;28;20024;-57
2023/12/18 09:38:24;;;;;;;35.25;19.83;;;;;;;5.51;100.00;103133.41;5031228;28;20044;-57
2023/12/18 09:40:50;;;;;;;34.28;21.08;;;;;;;5.52;100.00;103129.84;5034621;28;20025;-56
2023/12/18 09:43:17;;;;;;;30.77;18.90;;;;;;;5.54;100.00;103128.03;5034605;28;20086;-58
2023/12/18 09:45:43;;;;;;;32.40;19.45;;;;;;;5.56;100.00;103131.53;5030691;28;20036;-57
2023/12/18 09:48:09;;;;;;;36.15;20.75;;;;;;;5.56;100.00;103128.00;5034254;28;20026;-56
2023/12/18 09:50:34;;;;;;;33.75;19.98;;;;;;;5.57;100.00;103127.97;5033588;28;20025;-57
2023/12/18 09:53:08;;;;;;;33.38;19.65;;;;;;;5.58;100.00;103123.59;5029433;28;20033;-57
2023/12/18 09:55:35;;;;;;;29.98;19.40;;;;;;;5.57;100.00;103127.97;5036348;28;20030;-56
2023/12/18 09:58:00;;;;;;;38.60;20.50;;;;;;;5.59;100.00;103119.19;5022255;28;20053;-54
2023/12/18 10:00:27;;;;;;;29.23;19.35;;;;;;;5.59;100.00;103120.03;5035876;28;20167;-57
2023/12/18 10:02:54;;;;;;;35.95;19.65;;;;;;;5.57;100.00;103124.50;5029649;28;20065;-56
2023/12/18 10:05:20;;;;;;;32.22;19.70;;;;;;;5.57;100.00;103124.50;5035378;28;20037;-57
2023/12/18 10:07:45;;;;;;;33.58;19.73;;;;;;;5.58;100.00;103120.97;5031773;28;20163;-55
2023/12/18 10:10:11;;;;;;;34.55;20.58;;;;;;;5.57;100.00;103121.84;5034159;28;20473;-57
2023/12/18 10:12:38;;;;;;;31.15;18.90;;;;;;;5.57;100.00;103114.81;5012173;28;20042;-57
2023/12/18 10:15:07;;;;;;;37.33;20.30;;;;;;;5.57;100.00;103116.59;5017327;28;20022;-55
2023/12/18 10:17:33;;;;;;;;;;;;;;;5.62;100.00;103120.00;5016540;28;20498;-56
2023/12/18 10:20:02;;;;;;;32.08;18.33;;;;;;;5.59;100.00;103113.91;5015288;28;19913;-57
2023/12/18 10:22:28;;;;;;;30.83;19.35;;;;;;;5.61;100.00;103120.03;5015548;28;20037;-55
2023/12/18 10:24:56;;;;;;;35.10;19.75;;;;;;;5.56;100.00;103117.47;5014124;28;20063;-54
2023/12/18 10:27:21;;;;;;;30.33;18.75;;;;;;;5.55;100.00;103121.88;5017140;28;20077;-56
2023/12/18 10:29:46;;;;;;;35.05;20.33;;;;;;;5.55;100.00;103118.38;5017630;28;20049;-53
2023/12/18 10:32:12;;;;;;;33.42;20.15;;;;;;;5.57;100.00;103108.66;5015064;28;20186;-55
2023/12/18 10:34:37;;;;;;;33.20;18.65;;;;;;;5.55;100.00;103108.69;5013780;28;20040;-56
2023/12/18 10:37:03;;;;;;;30.05;20.83;;;;;;;5.55;100.00;103108.69;5015371;28;20541;-57
2023/12/18 10:39:29;;;;;;;32.50;20.15;;;;;;;5.52;100.00;103103.47;5010887;28;20026;-57
2023/12/18 10:41:59;;;;;;;30.92;20.38;;;;;;;5.50;100.00;103097.38;5017153;28;20056;-56
2023/12/18 10:44:25;;;;;;;34.42;20.13;;;;;;;5.50;100.00;103096.50;5013255;28;20096;-55
2023/12/18 10:46:51;;;;;;;31.13;19.08;;;;;;;5.50;100.00;103085.97;5009705;28;20034;-56
2023/12/18 10:49:18;;;;;;;31.23;19.10;;;;;;;5.47;100.00;103092.16;5016507;28;20061;-56
2023/12/18 10:51:45;;;;;;;35.30;19.65;;;;;;;5.46;100.00;103082.53;5012332;28;20360;-58
2023/12/18 10:54:11;;;;;;;36.33;19.40;;;;;;;5.47;100.00;103078.13;5014105;28;20034;-56
2023/12/18 10:56:39;;;;;;;31.58;18.88;;;;;;;5.44;100.00;103076.41;5008668;28;20029;-57
2023/12/18 10:59:06;;;;;;;31.70;20.20;;;;;;;5.44;100.00;103065.84;5012569;28;20022;-57
2023/12/18 11:01:32;;;;;;;28.27;19.15;;;;;;;5.45;100.00;103054.44;5009957;28;20084;-56